createdAt,value
2023-03-17T00:00:15.603Z,95124.00
2023-03-17T00:01:15.692Z,95124.00
2023-03-17T00:02:15.746Z,95126.00
2023-03-17T00:03:15.793Z,95124.00
2023-03-17T00:04:15.788Z,95126.00
2023-03-17T00:05:15.853Z,95126.00
2023-03-17T00:06:15.890Z,95126.00
2023-03-17T00:07:15.933Z,95122.00
2023-03-17T00:08:15.961Z,95116.00
2023-03-17T00:09:15.991Z,95112.00
2023-03-17T00:10:16.008Z,95112.00
2023-03-17T00:11:16.087Z,95112.00
2023-03-17T00:12:16.109Z,95114.00
2023-03-17T00:13:16.169Z,95116.00
2023-03-17T00:14:16.264Z,95120.00
2023-03-17T00:15:16.303Z,95116.00
2023-03-17T00:16:16.361Z,95114.00
2023-03-17T00:17:16.339Z,95112.00
2023-03-17T00:18:16.408Z,95109.00
2023-03-17T00:19:16.446Z,95105.00
2023-03-17T00:20:16.529Z,95101.00
2023-03-17T00:21:16.537Z,95099.00
2023-03-17T00:22:16.633Z,95101.00
2023-03-17T00:23:16.659Z,95103.00
2023-03-17T00:24:16.658Z,95101.00
2023-03-17T00:25:16.715Z,95101.00
2023-03-17T00:26:16.762Z,95101.00
2023-03-17T00:27:16.756Z,95099.00
2023-03-17T00:28:16.772Z,95101.00
2023-03-17T00:29:16.785Z,95097.00
2023-03-17T00:30:16.790Z,95099.00
2023-03-17T00:31:17.096Z,95101.00
2023-03-17T00:32:16.942Z,95099.00
2023-03-17T00:33:16.952Z,95099.00
2023-03-17T00:34:17.004Z,95099.00
2023-03-17T00:35:17.030Z,95099.00
2023-03-17T00:36:17.052Z,95099.00
2023-03-17T00:37:17.079Z,95095.00
2023-03-17T00:38:17.107Z,95089.00
2023-03-17T00:39:17.084Z,95085.00
2023-03-17T00:40:17.129Z,95083.00
2023-03-17T00:41:17.135Z,95083.00
2023-03-17T00:42:17.193Z,95085.00
2023-03-17T00:43:17.254Z,95085.00
2023-03-17T00:44:17.276Z,95085.00
2023-03-17T00:45:17.362Z,95087.00
2023-03-17T00:46:17.401Z,95087.00
2023-03-17T00:47:17.422Z,95087.00
2023-03-17T00:48:17.389Z,95083.00
2023-03-17T00:49:18.464Z,95081.00
2023-03-17T00:50:17.456Z,95073.00
2023-03-17T00:51:17.425Z,95073.00
2023-03-17T01:06:18.480Z,95075.00
2023-03-17T01:11:18.556Z,95063.00
2023-03-17T01:24:18.471Z,95069.00
2023-03-17T01:25:18.497Z,95073.00
2023-03-17T01:26:18.452Z,95075.00
2023-03-17T01:27:18.460Z,95075.00
2023-03-17T01:28:18.588Z,95079.00
2023-03-17T01:29:18.561Z,95077.00
2023-03-17T01:30:18.565Z,95077.00
2023-03-17T01:31:18.664Z,95073.00
2023-03-17T01:32:18.613Z,95071.00
2023-03-17T01:33:18.630Z,95069.00
2023-03-17T01:34:18.703Z,95069.00
2023-03-17T01:35:18.767Z,95069.00
2023-03-17T01:36:18.829Z,95067.00
2023-03-17T01:37:18.889Z,95071.00
2023-03-17T01:38:19.001Z,95069.00
2023-03-17T01:39:18.972Z,95073.00
2023-03-17T01:40:19.000Z,95075.00
2023-03-17T01:41:19.030Z,95075.00
2023-03-17T01:42:19.088Z,95075.00
2023-03-17T01:43:19.134Z,95069.00
2023-03-17T01:44:19.192Z,95063.00
2023-03-17T01:45:19.254Z,95061.00
2023-03-17T01:46:19.288Z,95063.00
2023-03-17T01:47:19.306Z,95063.00
2023-03-17T01:48:19.348Z,95067.00
2023-03-17T01:49:19.473Z,95069.00
2023-03-17T01:50:19.503Z,95069.00
2023-03-17T01:51:19.563Z,95069.00
2023-03-17T01:52:19.592Z,95067.00
2023-03-17T01:53:19.662Z,95067.00
2023-03-17T01:54:19.726Z,95059.00
2023-03-17T01:55:19.782Z,95057.00
2023-03-17T01:56:19.849Z,95057.00
2023-03-17T01:57:19.889Z,95061.00
2023-03-17T01:58:19.948Z,95061.00
2023-03-17T01:59:20.016Z,95063.00
2023-03-17T02:00:20.070Z,95063.00
2023-03-17T02:01:20.105Z,95063.00
2023-03-17T02:02:20.168Z,95057.00
2023-03-17T02:03:20.253Z,95056.00
2023-03-17T02:04:20.401Z,95054.00
2023-03-17T02:05:20.362Z,95050.00
2023-03-17T02:06:20.412Z,95052.00
2023-03-17T02:07:20.496Z,95050.00
2023-03-17T02:08:20.546Z,95048.00
2023-03-17T02:09:20.586Z,95048.00
2023-03-17T02:10:20.649Z,95048.00
2023-03-17T02:11:20.716Z,95044.00
2023-03-17T02:12:20.757Z,95042.00
2023-03-17T02:13:20.836Z,95042.00
2023-03-17T02:14:20.869Z,95038.00
2023-03-17T02:15:20.937Z,95040.00
2023-03-17T02:16:20.973Z,95042.00
2023-03-17T02:17:20.996Z,95044.00
2023-03-17T02:18:21.059Z,95040.00
2023-03-17T02:19:21.087Z,95042.00
2023-03-17T02:20:21.114Z,95040.00
2023-03-17T02:21:21.134Z,95040.00
2023-03-17T02:22:21.146Z,95042.00
2023-03-17T02:23:21.195Z,95042.00
2023-03-17T02:24:21.250Z,95046.00
2023-03-17T02:25:21.268Z,95046.00
2023-03-17T02:26:21.294Z,95038.00
2023-03-17T02:27:21.335Z,95034.00
2023-03-17T02:28:21.366Z,95036.00
2023-03-17T02:29:21.388Z,95032.00
2023-03-17T02:30:21.434Z,95036.00
2023-03-17T02:31:21.493Z,95048.00
2023-03-17T02:32:21.526Z,95046.00
2023-03-17T02:33:21.555Z,95044.00
2023-03-17T02:34:21.547Z,95046.00
2023-03-17T02:35:21.566Z,95040.00
2023-03-17T02:36:21.638Z,95042.00
2023-03-17T02:37:21.620Z,95048.00
2023-03-17T02:38:21.668Z,95052.00
2023-03-17T02:39:21.688Z,95050.00
2023-03-17T02:40:21.707Z,95048.00
2023-03-17T02:41:21.728Z,95044.00
2023-03-17T02:42:21.772Z,95034.00
2023-03-17T02:43:21.747Z,95026.00
2023-03-17T02:44:21.801Z,95026.00
2023-03-17T02:45:21.796Z,95034.00
2023-03-17T02:46:21.926Z,95034.00
2023-03-17T02:47:21.885Z,95036.00
2023-03-17T02:48:21.899Z,95042.00
2023-03-17T02:49:21.907Z,95042.00
2023-03-17T02:50:21.912Z,95042.00
2023-03-17T02:51:21.976Z,95036.00
2023-03-17T02:52:21.906Z,95028.00
2023-03-17T02:53:21.971Z,95026.00
2023-03-17T02:54:21.995Z,95024.00
2023-03-17T02:55:22.003Z,95030.00
2023-03-17T02:56:21.993Z,95034.00
2023-03-17T02:57:22.004Z,95038.00
2023-03-17T02:58:22.012Z,95038.00
2023-03-17T02:59:22.010Z,95034.00
2023-03-17T03:00:22.051Z,95032.00
2023-03-17T03:01:22.030Z,95028.00
2023-03-17T03:02:22.066Z,95030.00
2023-03-17T03:03:22.032Z,95030.00
2023-03-17T03:04:22.044Z,95036.00
2023-03-17T03:05:22.073Z,95036.00
2023-03-17T03:06:22.063Z,95034.00
2023-03-17T03:07:22.085Z,95038.00
2023-03-17T03:08:22.093Z,95030.00
2023-03-17T03:09:22.079Z,95030.00
2023-03-17T03:10:22.083Z,95028.00
2023-03-17T03:11:22.094Z,95030.00
2023-03-17T03:12:22.123Z,95022.00
2023-03-17T03:13:22.106Z,95024.00
2023-03-17T03:14:22.112Z,95030.00
2023-03-17T03:15:22.130Z,95032.00
2023-03-17T03:16:22.168Z,95038.00
2023-03-17T03:17:22.157Z,95038.00
2023-03-17T03:18:22.138Z,95036.00
2023-03-17T03:19:22.168Z,95030.00
2023-03-17T03:20:22.191Z,95030.00
2023-03-17T03:21:22.182Z,95028.00
2023-03-17T03:22:22.171Z,95028.00
2023-03-17T03:23:22.170Z,95030.00
2023-03-17T03:24:22.166Z,95030.00
2023-03-17T03:25:22.188Z,95032.00
2023-03-17T03:26:22.187Z,95034.00
2023-03-17T03:27:22.168Z,95032.00
2023-03-17T03:28:22.171Z,95032.00
2023-03-17T03:29:22.187Z,95034.00
2023-03-17T03:30:22.193Z,95036.00
2023-03-17T03:31:22.193Z,95036.00
2023-03-17T03:32:22.188Z,95040.00
2023-03-17T03:33:22.184Z,95046.00
2023-03-17T03:34:22.188Z,95046.00
2023-03-17T03:35:22.181Z,95048.00
2023-03-17T03:36:22.184Z,95050.00
2023-03-17T03:37:22.228Z,95046.00
2023-03-17T03:38:22.191Z,95044.00
2023-03-17T03:39:22.205Z,95036.00
2023-03-17T03:40:22.168Z,95032.00
2023-03-17T03:41:22.193Z,95028.00
2023-03-17T03:42:22.208Z,95028.00
2023-03-17T03:43:23.872Z,95028.00
2023-03-17T03:44:22.205Z,95030.00
2023-03-17T03:45:23.096Z,95038.00
2023-03-17T03:46:22.223Z,95040.00
2023-03-17T03:47:22.203Z,95042.00
2023-03-17T03:48:22.215Z,95046.00
2023-03-17T03:49:22.173Z,95044.00
2023-03-17T03:50:22.208Z,95048.00
2023-03-17T03:51:22.244Z,95048.00
2023-03-17T03:52:22.189Z,95048.00
2023-03-17T03:53:22.202Z,95048.00
2023-03-17T03:54:22.190Z,95040.00
2023-03-17T03:55:22.212Z,95036.00
2023-03-17T03:56:22.243Z,95032.00
2023-03-17T03:57:22.221Z,95030.00
2023-03-17T03:58:22.199Z,95030.00
2023-03-17T03:59:22.280Z,95030.00
2023-03-17T04:00:22.311Z,95030.00
2023-03-17T04:01:22.281Z,95036.00
2023-03-17T04:02:22.342Z,95036.00
2023-03-17T04:03:22.261Z,95030.00
2023-03-17T04:04:22.319Z,95028.00
2023-03-17T04:05:22.306Z,95028.00
2023-03-17T04:06:22.355Z,95020.00
2023-03-17T04:07:22.327Z,95018.00
2023-03-17T04:08:22.337Z,95018.00
2023-03-17T04:09:22.342Z,95022.00
2023-03-17T04:10:22.394Z,95024.00
2023-03-17T04:11:22.340Z,95030.00
2023-03-17T04:12:22.374Z,95032.00
2023-03-17T04:13:22.377Z,95036.00
2023-03-17T04:14:22.383Z,95034.00
2023-03-17T04:15:22.348Z,95036.00
2023-03-17T04:16:22.467Z,95034.00
2023-03-17T04:17:22.349Z,95032.00
2023-03-17T04:18:22.344Z,95034.00
2023-03-17T04:19:22.413Z,95032.00
2023-03-17T04:20:22.421Z,95024.00
2023-03-17T04:21:22.342Z,95018.00
2023-03-17T04:22:22.386Z,95014.00
2023-03-17T04:23:22.350Z,95011.00
2023-03-17T04:24:22.379Z,95013.00
2023-03-17T04:25:22.342Z,95014.00
2023-03-17T04:26:22.356Z,95014.00
2023-03-17T04:27:22.330Z,95016.00
2023-03-17T04:28:22.331Z,95016.00
2023-03-17T04:29:22.328Z,95014.00
2023-03-17T04:30:22.353Z,95016.00
2023-03-17T04:31:22.379Z,95013.00
2023-03-17T04:32:22.359Z,95009.00
2023-03-17T04:33:22.365Z,95005.00
2023-03-17T04:34:22.355Z,95001.00
2023-03-17T04:35:22.375Z,94999.00
2023-03-17T04:36:22.350Z,95001.00
2023-03-17T04:37:22.383Z,95003.00
2023-03-17T04:38:22.342Z,95009.00
2023-03-17T04:39:22.395Z,95013.00
2023-03-17T04:40:22.348Z,95016.00
2023-03-17T04:41:22.388Z,95014.00
2023-03-17T04:42:22.364Z,95014.00
2023-03-17T04:43:22.377Z,95009.00
2023-03-17T04:44:22.391Z,95011.00
2023-03-17T04:45:22.337Z,95007.00
2023-03-17T04:46:22.380Z,95007.00
2023-03-17T04:47:22.356Z,95005.00
2023-03-17T04:48:22.407Z,95005.00
2023-03-17T04:49:22.418Z,95007.00
2023-03-17T04:50:22.426Z,95005.00
2023-03-17T04:51:22.425Z,95003.00
2023-03-17T04:52:22.428Z,94995.00
2023-03-17T04:53:22.440Z,94995.00
2023-03-17T04:54:22.461Z,94991.00
2023-03-17T04:55:22.508Z,94995.00
2023-03-17T04:56:22.501Z,94995.00
2023-03-17T04:57:22.521Z,95001.00
2023-03-17T04:58:30.546Z,95005.00
2023-03-17T04:59:23.540Z,95005.00
2023-03-17T05:00:22.507Z,95005.00
2023-03-17T05:01:22.528Z,95005.00
2023-03-17T05:02:22.539Z,95007.00
2023-03-17T05:03:27.193Z,95005.00
2023-03-17T05:04:31.165Z,95001.00
2023-03-17T05:05:23.456Z,94999.00
2023-03-17T05:06:22.471Z,94999.00
2023-03-17T05:07:22.457Z,94999.00
2023-03-17T05:08:22.480Z,94999.00
2023-03-17T05:09:22.457Z,95001.00
2023-03-17T05:10:22.437Z,94999.00
2023-03-17T05:11:22.435Z,94997.00
2023-03-17T05:12:22.480Z,94997.00
2023-03-17T05:13:22.417Z,94997.00
2023-03-17T05:14:22.398Z,94997.00
2023-03-17T05:15:22.415Z,94999.00
2023-03-17T05:16:22.421Z,95001.00
2023-03-17T05:17:22.397Z,95003.00
2023-03-17T05:18:22.408Z,95003.00
2023-03-17T05:19:22.382Z,95005.00
2023-03-17T05:20:22.379Z,95007.00
2023-03-17T05:21:22.414Z,95007.00
2023-03-17T05:22:22.362Z,95005.00
2023-03-17T05:23:22.379Z,95003.00
2023-03-17T05:24:22.359Z,95003.00
2023-03-17T05:25:22.342Z,95005.00
2023-03-17T05:26:22.336Z,94999.00
2023-03-17T05:27:22.330Z,95001.00
2023-03-17T05:28:22.343Z,95003.00
2023-03-17T05:29:22.316Z,95003.00
2023-03-17T05:30:22.327Z,95003.00
2023-03-17T05:31:22.408Z,95001.00
2023-03-17T05:32:22.311Z,94999.00
2023-03-17T05:33:22.274Z,95001.00
2023-03-17T05:34:22.298Z,95003.00
2023-03-17T05:35:22.299Z,95003.00
2023-03-17T05:36:22.263Z,95003.00
2023-03-17T05:37:22.267Z,95005.00
2023-03-17T05:38:22.276Z,95005.00
2023-03-17T05:39:22.288Z,95007.00
2023-03-17T05:40:23.849Z,95007.00
2023-03-17T05:41:22.271Z,95007.00
2023-03-17T05:42:22.263Z,95007.00
2023-03-17T05:43:22.216Z,95007.00
2023-03-17T05:44:22.246Z,95009.00
2023-03-17T05:45:22.220Z,95003.00
2023-03-17T05:46:22.223Z,95005.00
2023-03-17T05:47:22.186Z,95005.00
2023-03-17T05:48:22.214Z,95005.00
2023-03-17T05:49:22.216Z,95009.00
2023-03-17T05:50:22.169Z,95011.00
2023-03-17T05:51:22.212Z,95009.00
2023-03-17T05:52:22.174Z,95007.00
2023-03-17T05:53:22.172Z,95007.00
2023-03-17T05:54:22.180Z,95007.00
2023-03-17T05:55:22.141Z,95009.00
2023-03-17T05:56:22.140Z,95007.00
2023-03-17T05:57:22.160Z,95007.00
2023-03-17T05:58:22.162Z,95001.00
2023-03-17T05:59:22.147Z,94999.00
2023-03-17T06:00:29.580Z,94999.00
2023-03-17T06:01:22.104Z,94997.00
2023-03-17T06:02:22.162Z,94999.00
2023-03-17T06:03:22.128Z,94999.00
2023-03-17T06:04:22.088Z,94999.00
2023-03-17T06:05:22.092Z,94995.00
2023-03-17T06:06:22.085Z,94995.00
2023-03-17T06:07:22.092Z,94995.00
2023-03-17T06:08:22.070Z,94997.00
2023-03-17T06:09:22.095Z,94997.00
2023-03-17T06:10:22.075Z,94997.00
2023-03-17T06:11:22.054Z,95001.00
2023-03-17T06:12:22.021Z,94999.00
2023-03-17T06:13:22.034Z,94997.00
2023-03-17T06:14:22.041Z,94999.00
2023-03-17T06:15:22.019Z,94999.00
2023-03-17T06:16:22.065Z,94999.00
2023-03-17T06:17:22.002Z,95005.00
2023-03-17T06:18:21.996Z,95005.00
2023-03-17T06:19:22.016Z,95003.00
2023-03-17T06:20:21.985Z,95001.00
2023-03-17T06:21:22.041Z,94999.00
2023-03-17T06:22:22.031Z,94995.00
2023-03-17T06:23:21.999Z,94999.00
2023-03-17T06:24:21.953Z,94993.00
2023-03-17T06:25:21.968Z,94997.00
2023-03-17T06:26:21.993Z,94999.00
2023-03-17T06:27:21.992Z,95001.00
2023-03-17T06:28:22.679Z,95001.00
2023-03-17T06:29:22.065Z,95001.00
2023-03-17T06:30:22.081Z,95003.00
2023-03-17T06:31:22.209Z,94997.00
2023-03-17T06:32:22.155Z,94995.00
2023-03-17T06:33:22.194Z,94991.00
2023-03-17T06:34:22.193Z,94995.00
2023-03-17T06:35:22.275Z,94999.00
2023-03-17T06:36:22.327Z,94995.00
2023-03-17T06:37:22.739Z,94999.00
2023-03-17T06:38:22.378Z,94997.00
2023-03-17T06:39:22.431Z,95001.00
2023-03-17T06:40:22.487Z,94997.00
2023-03-17T06:41:22.553Z,94997.00
2023-03-17T06:42:22.687Z,94997.00
2023-03-17T06:43:22.555Z,94997.00
2023-03-17T06:44:22.622Z,94991.00
2023-03-17T06:45:30.019Z,94993.00
2023-03-17T06:46:22.645Z,94989.00
2023-03-17T06:47:25.803Z,94985.00
2023-03-17T06:48:22.622Z,94981.00
2023-03-17T06:49:22.623Z,94983.00
2023-03-17T06:50:22.581Z,94981.00
2023-03-17T06:51:22.665Z,94983.00
2023-03-17T06:52:22.558Z,94985.00
2023-03-17T06:53:22.588Z,94983.00
2023-03-17T06:54:22.583Z,94987.00
2023-03-17T06:55:22.585Z,94987.00
2023-03-17T06:56:29.869Z,94987.00
2023-03-17T06:57:23.529Z,94989.00
2023-03-17T06:58:22.541Z,94987.00
2023-03-17T06:59:23.051Z,94989.00
2023-03-17T07:00:22.547Z,94991.00
2023-03-17T07:01:22.540Z,94989.00
2023-03-17T07:02:22.776Z,94989.00
2023-03-17T07:03:22.511Z,94987.00
2023-03-17T07:04:22.618Z,94993.00
2023-03-17T07:05:22.473Z,94989.00
2023-03-17T07:06:22.562Z,94991.00
2023-03-17T07:07:22.608Z,94987.00
2023-03-17T07:08:22.651Z,94983.00
2023-03-17T07:09:22.616Z,94987.00
2023-03-17T07:10:22.704Z,94989.00
2023-03-17T07:11:22.727Z,94993.00
2023-03-17T07:12:22.728Z,94987.00
2023-03-17T07:13:22.805Z,94987.00
2023-03-17T07:14:22.811Z,94987.00
2023-03-17T07:15:22.788Z,94983.00
2023-03-17T07:16:22.839Z,94985.00
2023-03-17T07:17:22.845Z,94981.00
2023-03-17T07:18:22.870Z,94983.00
2023-03-17T07:19:22.865Z,94987.00
2023-03-17T07:20:22.940Z,94989.00
2023-03-17T07:21:22.889Z,94991.00
2023-03-17T07:22:22.933Z,94987.00
2023-03-17T07:23:23.176Z,94985.00
2023-03-17T07:24:22.988Z,94981.00
2023-03-17T07:25:22.917Z,94981.00
2023-03-17T07:26:22.918Z,94977.00
2023-03-17T07:27:23.257Z,94979.00
2023-03-17T07:28:22.952Z,94981.00
2023-03-17T07:29:22.984Z,94977.00
2023-03-17T07:30:22.940Z,94983.00
2023-03-17T07:31:23.054Z,94981.00
2023-03-17T07:32:22.951Z,94985.00
2023-03-17T07:33:23.041Z,94987.00
2023-03-17T07:34:23.118Z,94987.00
2023-03-17T07:35:23.198Z,94989.00
2023-03-17T07:36:23.211Z,94989.00
2023-03-17T07:37:23.274Z,94985.00
2023-03-17T07:38:23.284Z,94987.00
2023-03-17T07:39:23.310Z,94987.00
2023-03-17T07:40:23.341Z,94985.00
2023-03-17T07:41:23.326Z,94983.00
2023-03-17T07:42:23.453Z,94983.00
2023-03-17T07:43:23.409Z,94985.00
2023-03-17T07:44:23.428Z,94983.00
2023-03-17T07:45:23.464Z,94983.00
2023-03-17T07:46:23.545Z,94981.00
2023-03-17T07:47:23.489Z,94983.00
2023-03-17T07:48:23.495Z,94975.00
2023-03-17T07:49:40.049Z,94973.00
2023-03-17T07:50:24.536Z,94967.00
2023-03-17T07:51:23.518Z,94967.00
2023-03-17T07:52:23.572Z,94962.00
2023-03-17T07:53:23.523Z,94960.00
2023-03-17T07:54:23.500Z,94960.00
2023-03-17T07:55:23.500Z,94963.00
2023-03-17T07:56:23.551Z,94963.00
2023-03-17T07:57:23.657Z,94958.00
2023-03-17T07:58:23.505Z,94965.00
2023-03-17T07:59:23.448Z,94967.00
2023-03-17T08:00:23.463Z,94969.00
2023-03-17T08:01:23.463Z,94965.00
2023-03-17T08:02:23.529Z,94963.00
2023-03-17T08:03:23.470Z,94967.00
2023-03-17T08:04:23.441Z,94965.00
2023-03-17T08:05:23.442Z,94963.00
2023-03-17T08:06:23.464Z,94962.00
2023-03-17T08:07:23.422Z,94960.00
2023-03-17T08:08:23.503Z,94954.00
2023-03-17T08:09:24.289Z,94954.00
2023-03-17T08:10:23.478Z,94950.00
2023-03-17T08:11:23.554Z,94948.00
2023-03-17T08:12:23.494Z,94950.00
2023-03-17T08:13:23.456Z,94950.00
2023-03-17T08:14:23.423Z,94948.00
2023-03-17T08:15:23.491Z,94952.00
2023-03-17T08:16:23.610Z,94946.00
2023-03-17T08:17:23.677Z,94946.00
2023-03-17T08:18:23.739Z,94942.00
2023-03-17T08:19:23.919Z,94942.00
2023-03-17T08:20:23.877Z,94946.00
2023-03-17T08:21:23.862Z,94942.00
2023-03-17T08:22:23.941Z,94944.00
2023-03-17T08:23:24.257Z,94942.00
2023-03-17T08:24:24.046Z,94944.00
2023-03-17T08:25:24.063Z,94938.00
2023-03-17T08:26:24.135Z,94942.00
2023-03-17T08:27:24.229Z,94938.00
2023-03-17T08:28:24.227Z,94938.00
2023-03-17T08:29:24.337Z,94936.00
2023-03-17T08:30:24.361Z,94928.00
2023-03-17T08:31:24.480Z,94930.00
2023-03-17T08:32:24.451Z,94928.00
2023-03-17T08:33:24.503Z,94928.00
2023-03-17T08:34:24.522Z,94930.00
2023-03-17T08:35:24.575Z,94932.00
2023-03-17T08:36:24.630Z,94928.00
2023-03-17T08:37:24.666Z,94928.00
2023-03-17T08:38:24.741Z,94926.00
2023-03-17T08:39:24.808Z,94928.00
2023-03-17T08:40:24.857Z,94924.00
2023-03-17T08:41:24.945Z,94918.00
2023-03-17T08:42:24.971Z,94911.00
2023-03-17T08:43:25.044Z,94911.00
2023-03-17T08:44:25.044Z,94907.00
2023-03-17T08:45:25.102Z,94909.00
2023-03-17T08:46:25.163Z,94901.00
2023-03-17T08:47:25.177Z,94891.00
2023-03-17T08:48:25.296Z,94887.00
2023-03-17T08:49:25.231Z,94889.00
2023-03-17T08:50:25.335Z,94891.00
2023-03-17T08:51:25.272Z,94887.00
2023-03-17T08:52:25.338Z,94887.00
2023-03-17T08:53:25.416Z,94885.00
2023-03-17T08:54:25.471Z,94881.00
2023-03-17T08:55:25.478Z,94879.00
2023-03-17T08:56:25.484Z,94883.00
2023-03-17T08:57:25.497Z,94879.00
2023-03-17T08:58:25.512Z,94879.00
2023-03-17T08:59:25.571Z,94875.00
2023-03-17T09:00:25.537Z,94871.00
2023-03-17T09:01:25.651Z,94873.00
2023-03-17T09:02:25.742Z,94867.00
2023-03-17T09:03:25.710Z,94869.00
2023-03-17T09:04:25.772Z,94865.00
2023-03-17T09:05:25.818Z,94862.00
2023-03-17T09:06:25.893Z,94863.00
2023-03-17T09:07:25.936Z,94863.00
2023-03-17T09:08:25.998Z,94860.00
2023-03-17T09:09:26.070Z,94858.00
2023-03-17T09:10:26.147Z,94858.00
2023-03-17T09:11:26.178Z,94854.00
2023-03-17T09:12:26.263Z,94854.00
2023-03-17T09:13:26.286Z,94854.00
2023-03-17T09:14:26.344Z,94850.00
2023-03-17T09:15:26.354Z,94846.00
2023-03-17T09:16:26.367Z,94848.00
2023-03-17T09:17:26.425Z,94840.00
2023-03-17T09:18:26.760Z,94834.00
2023-03-17T09:19:26.540Z,94836.00
2023-03-17T09:20:26.521Z,94834.00
2023-03-17T09:21:26.572Z,94830.00
2023-03-17T09:22:26.652Z,94830.00
2023-03-17T09:23:26.735Z,94828.00
2023-03-17T09:24:26.677Z,94826.00
2023-03-17T09:25:26.690Z,94822.00
2023-03-17T09:26:26.777Z,94820.00
2023-03-17T09:27:26.843Z,94815.00
2023-03-17T09:28:26.891Z,94815.00
2023-03-17T09:29:26.903Z,94815.00
2023-03-17T09:30:27.020Z,94816.00
2023-03-17T09:31:27.064Z,94813.00
2023-03-17T09:32:27.112Z,94811.00
2023-03-17T09:33:27.323Z,94809.00
2023-03-17T09:34:27.171Z,94805.00
2023-03-17T09:35:27.253Z,94801.00
2023-03-17T09:36:27.297Z,94801.00
2023-03-17T09:37:27.329Z,94799.00
2023-03-17T09:38:27.955Z,94797.00
2023-03-17T09:39:27.526Z,94801.00
2023-03-17T09:40:28.534Z,94803.00
2023-03-17T09:41:27.638Z,94801.00
2023-03-17T09:42:27.547Z,94799.00
2023-03-17T09:43:27.620Z,94797.00
2023-03-17T09:44:27.563Z,94799.00
2023-03-17T09:45:27.562Z,94797.00
2023-03-17T09:46:27.618Z,94793.00
2023-03-17T09:47:27.568Z,94791.00
2023-03-17T09:48:27.632Z,94795.00
2023-03-17T09:49:27.656Z,94793.00
2023-03-17T09:50:27.589Z,94797.00
2023-03-17T09:51:27.589Z,94801.00
2023-03-17T09:52:27.609Z,94797.00
2023-03-17T09:53:27.636Z,94799.00
2023-03-17T09:54:27.804Z,94801.00
2023-03-17T09:55:27.731Z,94805.00
2023-03-17T09:56:27.777Z,94801.00
2023-03-17T09:57:27.865Z,94799.00
2023-03-17T09:58:27.895Z,94793.00
2023-03-17T09:59:27.970Z,94791.00
2023-03-17T10:00:28.043Z,94783.00
2023-03-17T10:01:28.107Z,94785.00
2023-03-17T10:02:28.157Z,94783.00
2023-03-17T10:03:28.202Z,94781.00
2023-03-17T10:04:29.192Z,94779.00
2023-03-17T10:05:28.456Z,94779.00
2023-03-17T10:06:28.369Z,94779.00
2023-03-17T10:07:28.439Z,94779.00
2023-03-17T10:08:31.631Z,94773.00
2023-03-17T10:09:28.568Z,94773.00
2023-03-17T10:10:28.916Z,94775.00
2023-03-17T10:11:28.460Z,94771.00
2023-03-17T10:12:28.419Z,94771.00
2023-03-17T10:13:28.439Z,94768.00
2023-03-17T10:14:28.408Z,94769.00
2023-03-17T10:15:28.410Z,94768.00
2023-03-17T10:16:28.449Z,94762.00
2023-03-17T10:17:28.403Z,94758.00
2023-03-17T10:18:28.425Z,94752.00
2023-03-17T10:19:28.415Z,94758.00
2023-03-17T10:20:28.373Z,94762.00
2023-03-17T10:21:28.366Z,94758.00
2023-03-17T10:22:28.339Z,94752.00
2023-03-17T10:23:28.350Z,94748.00
2023-03-17T10:24:28.362Z,94748.00
2023-03-17T10:25:28.354Z,94748.00
2023-03-17T10:26:28.363Z,94748.00
2023-03-17T10:27:28.326Z,94742.00
2023-03-17T10:28:28.337Z,94740.00
2023-03-17T10:29:28.298Z,94744.00
2023-03-17T10:30:28.302Z,94740.00
2023-03-17T10:31:28.440Z,94742.00
2023-03-17T10:32:28.320Z,94736.00
2023-03-17T10:33:28.295Z,94738.00
2023-03-17T10:34:28.269Z,94736.00
2023-03-17T10:35:28.316Z,94732.00
2023-03-17T10:36:28.264Z,94730.00
2023-03-17T10:37:28.236Z,94730.00
2023-03-17T10:38:28.262Z,94728.00
2023-03-17T10:39:29.300Z,94726.00
2023-03-17T10:40:28.422Z,94730.00
2023-03-17T10:41:28.213Z,94726.00
2023-03-17T10:42:28.283Z,94722.00
2023-03-17T10:43:28.288Z,94719.00
2023-03-17T10:44:28.328Z,94717.00
2023-03-17T10:45:28.268Z,94715.00
2023-03-17T10:46:28.260Z,94717.00
2023-03-17T10:47:28.306Z,94713.00
2023-03-17T10:48:28.303Z,94711.00
2023-03-17T10:49:28.836Z,94711.00
2023-03-17T10:50:28.489Z,94709.00
2023-03-17T10:51:28.501Z,94711.00
2023-03-17T10:52:28.505Z,94707.00
2023-03-17T10:53:28.673Z,94707.00
2023-03-17T10:54:28.816Z,94701.00
2023-03-17T10:55:28.590Z,94695.00
2023-03-17T10:56:28.647Z,94693.00
2023-03-17T10:57:28.693Z,94689.00
2023-03-17T10:58:28.756Z,94685.00
2023-03-17T10:59:28.822Z,94687.00
2023-03-17T11:00:29.120Z,94685.00
2023-03-17T11:01:28.918Z,94681.00
2023-03-17T11:02:28.990Z,94685.00
2023-03-17T11:03:29.121Z,94679.00
2023-03-17T11:04:29.111Z,94677.00
2023-03-17T11:05:29.179Z,94679.00
2023-03-17T11:06:29.163Z,94679.00
2023-03-17T11:07:29.247Z,94681.00
2023-03-17T11:08:29.294Z,94681.00
2023-03-17T11:09:29.387Z,94681.00
2023-03-17T11:10:29.627Z,94677.00
2023-03-17T11:11:29.402Z,94675.00
2023-03-17T11:12:29.470Z,94679.00
2023-03-17T11:13:29.476Z,94679.00
2023-03-17T11:14:29.846Z,94672.00
2023-03-17T11:15:29.836Z,94668.00
2023-03-17T11:16:29.616Z,94666.00
2023-03-17T11:17:29.564Z,94664.00
2023-03-17T11:18:31.358Z,94662.00
2023-03-17T11:19:29.591Z,94660.00
2023-03-17T11:20:29.899Z,94660.00
2023-03-17T11:21:29.626Z,94654.00
2023-03-17T11:22:29.657Z,94650.00
2023-03-17T11:23:29.658Z,94652.00
2023-03-17T11:24:30.859Z,94652.00
2023-03-17T11:25:29.702Z,94648.00
2023-03-17T11:26:29.740Z,94646.00
2023-03-17T11:27:29.712Z,94648.00
2023-03-17T11:28:29.713Z,94644.00
2023-03-17T11:29:29.747Z,94644.00
2023-03-17T11:30:30.095Z,94636.00
2023-03-17T11:31:29.848Z,94636.00
2023-03-17T11:32:29.884Z,94634.00
2023-03-17T11:33:29.812Z,94630.00
2023-03-17T11:34:29.827Z,94628.00
2023-03-17T11:35:30.390Z,94628.00
2023-03-17T11:36:29.876Z,94624.00
2023-03-17T11:37:29.907Z,94624.00
2023-03-17T11:38:29.912Z,94621.00
2023-03-17T11:39:29.977Z,94615.00
2023-03-17T11:40:30.568Z,94617.00
2023-03-17T11:41:29.985Z,94613.00
2023-03-17T11:42:29.967Z,94613.00
2023-03-17T11:43:29.995Z,94615.00
2023-03-17T11:44:30.032Z,94605.00
2023-03-17T11:45:30.031Z,94607.00
2023-03-17T11:46:30.094Z,94609.00
2023-03-17T11:47:30.091Z,94607.00
2023-03-17T11:48:30.066Z,94611.00
2023-03-17T11:49:30.124Z,94609.00
2023-03-17T11:50:30.602Z,94603.00
2023-03-17T11:51:30.193Z,94603.00
2023-03-17T11:52:30.151Z,94609.00
2023-03-17T11:53:30.208Z,94611.00
2023-03-17T11:54:30.213Z,94605.00
2023-03-17T11:55:30.209Z,94597.00
2023-03-17T11:56:30.219Z,94591.00
2023-03-17T11:57:30.295Z,94589.00
2023-03-17T11:58:30.240Z,94583.00
2023-03-17T11:59:30.303Z,94577.00
2023-03-17T12:00:31.111Z,94575.00
2023-03-17T12:01:30.363Z,94579.00
2023-03-17T12:02:30.437Z,94579.00
2023-03-17T12:03:30.465Z,94579.00
2023-03-17T12:04:30.596Z,94581.00
2023-03-17T12:05:30.555Z,94583.00
2023-03-17T12:06:30.557Z,94583.00
2023-03-17T12:07:30.624Z,94587.00
2023-03-17T12:08:30.663Z,94579.00
2023-03-17T12:09:30.720Z,94579.00
2023-03-17T12:10:30.849Z,94585.00
2023-03-17T12:11:30.744Z,94591.00
2023-03-17T12:12:30.808Z,94566.00
2023-03-17T12:13:30.810Z,94554.00
2023-03-17T12:14:30.858Z,94558.00